Air Navigation Services of Czech Republic
Airport: LKMT Updated:  11.08.2020 00:30:28  UTC
 METAR LKMT 11.08. 00:30 ...
METAR LKMT 110030Z 20002KT CAVOK 19/17 Q1018 NOSIG RMK REG QNH 1015=
 TAF LKMT 10.08. 23:00 ...
TAF LKMT 102300Z 1100/1206 36006KT CAVOK      TEMPO 1108/1119 05012KT 6000 SHRA SCT040TCU      PROB30 TEMPO 1111/1118 3000 TSRA SCT033CB      TEMPO 1202/1206 3500 BR NSC=